sensor_id;sensor_type;location;lat;lon;timestamp;P1;durP1;ratioP1;P2;durP2;ratioP2
11598;SDS011;5855;48.840;9.188;2022-12-10T00:02:13;25.08;;;19.73;;
11598;SDS011;5855;48.840;9.188;2022-12-10T00:04:40;25.25;;;19.70;;
11598;SDS011;5855;48.840;9.188;2022-12-10T00:07:08;22.65;;;19.23;;
11598;SDS011;5855;48.840;9.188;2022-12-10T00:09:35;25.83;;;19.35;;
11598;SDS011;5855;48.840;9.188;2022-12-10T00:12:02;23.38;;;19.33;;
11598;SDS011;5855;48.840;9.188;2022-12-10T00:14:29;24.75;;;18.05;;
11598;SDS011;5855;48.840;9.188;2022-12-10T00:16:56;23.05;;;18.58;;
11598;SDS011;5855;48.840;9.188;2022-12-10T00:19:23;23.45;;;18.48;;
11598;SDS011;5855;48.840;9.188;2022-12-10T00:21:50;20.98;;;17.45;;
11598;SDS011;5855;48.840;9.188;2022-12-10T00:24:18;22.95;;;18.13;;
11598;SDS011;5855;48.840;9.188;2022-12-10T00:26:45;23.33;;;17.90;;
11598;SDS011;5855;48.840;9.188;2022-12-10T00:29:12;20.63;;;17.48;;
11598;SDS011;5855;48.840;9.188;2022-12-10T00:31:39;24.38;;;17.98;;
11598;SDS011;5855;48.840;9.188;2022-12-10T00:34:07;22.95;;;18.75;;
11598;SDS011;5855;48.840;9.188;2022-12-10T00:36:36;21.67;;;18.23;;
11598;SDS011;5855;48.840;9.188;2022-12-10T00:39:05;23.92;;;17.88;;
11598;SDS011;5855;48.840;9.188;2022-12-10T00:41:33;23.05;;;17.52;;
11598;SDS011;5855;48.840;9.188;2022-12-10T00:44:00;21.98;;;17.90;;
11598;SDS011;5855;48.840;9.188;2022-12-10T00:46:27;24.67;;;18.95;;
11598;SDS011;5855;48.840;9.188;2022-12-10T00:48:54;21.80;;;17.35;;
11598;SDS011;5855;48.840;9.188;2022-12-10T00:51:22;20.95;;;17.05;;
11598;SDS011;5855;48.840;9.188;2022-12-10T00:53:51;22.63;;;18.27;;
11598;SDS011;5855;48.840;9.188;2022-12-10T00:56:20;21.42;;;17.77;;
11598;SDS011;5855;48.840;9.188;2022-12-10T00:58:49;23.98;;;18.25;;
11598;SDS011;5855;48.840;9.188;2022-12-10T01:01:17;20.08;;;16.13;;
11598;SDS011;5855;48.840;9.188;2022-12-10T01:03:46;20.38;;;16.58;;
11598;SDS011;5855;48.840;9.188;2022-12-10T01:06:15;23.65;;;17.98;;
11598;SDS011;5855;48.840;9.188;2022-12-10T01:08:43;21.65;;;16.98;;
11598;SDS011;5855;48.840;9.188;2022-12-10T01:11:11;20.40;;;16.85;;
11598;SDS011;5855;48.840;9.188;2022-12-10T01:13:40;21.42;;;17.30;;
11598;SDS011;5855;48.840;9.188;2022-12-10T01:16:09;20.23;;;17.02;;
11598;SDS011;5855;48.840;9.188;2022-12-10T01:18:38;21.80;;;16.55;;
11598;SDS011;5855;48.840;9.188;2022-12-10T01:21:06;24.45;;;17.05;;
11598;SDS011;5855;48.840;9.188;2022-12-10T01:23:35;22.08;;;17.38;;
11598;SDS011;5855;48.840;9.188;2022-12-10T01:26:03;22.48;;;17.00;;
11598;SDS011;5855;48.840;9.188;2022-12-10T01:28:32;21.65;;;16.83;;
11598;SDS011;5855;48.840;9.188;2022-12-10T01:31:00;20.55;;;16.60;;
11598;SDS011;5855;48.840;9.188;2022-12-10T01:33:30;19.65;;;16.55;;
11598;SDS011;5855;48.840;9.188;2022-12-10T01:35:57;19.98;;;16.23;;
11598;SDS011;5855;48.840;9.188;2022-12-10T01:38:28;20.10;;;16.52;;
11598;SDS011;5855;48.840;9.188;2022-12-10T01:40:54;22.15;;;16.50;;
11598;SDS011;5855;48.840;9.188;2022-12-10T01:43:21;22.38;;;18.15;;
11598;SDS011;5855;48.840;9.188;2022-12-10T01:45:48;24.23;;;18.67;;
11598;SDS011;5855;48.840;9.188;2022-12-10T01:48:15;21.27;;;17.40;;
11598;SDS011;5855;48.840;9.188;2022-12-10T01:50:43;23.33;;;18.08;;
11598;SDS011;5855;48.840;9.188;2022-12-10T01:53:10;20.65;;;17.33;;
11598;SDS011;5855;48.840;9.188;2022-12-10T01:55:42;21.92;;;17.80;;
11598;SDS011;5855;48.840;9.188;2022-12-10T01:58:12;21.13;;;17.20;;
11598;SDS011;5855;48.840;9.188;2022-12-10T02:00:42;23.17;;;17.55;;
11598;SDS011;5855;48.840;9.188;2022-12-10T02:03:18;20.13;;;16.60;;
11598;SDS011;5855;48.840;9.188;2022-12-10T02:05:55;22.00;;;16.15;;
11598;SDS011;5855;48.840;9.188;2022-12-10T02:08:30;21.08;;;16.40;;
11598;SDS011;5855;48.840;9.188;2022-12-10T02:11:03;21.92;;;17.33;;
11598;SDS011;5855;48.840;9.188;2022-12-10T02:13:39;21.05;;;17.40;;
11598;SDS011;5855;48.840;9.188;2022-12-10T02:16:09;20.23;;;16.45;;
11598;SDS011;5855;48.840;9.188;2022-12-10T02:18:41;20.50;;;17.17;;
11598;SDS011;5855;48.840;9.188;2022-12-10T02:21:15;21.10;;;16.90;;
11598;SDS011;5855;48.840;9.188;2022-12-10T02:23:46;21.40;;;17.15;;
11598;SDS011;5855;48.840;9.188;2022-12-10T02:26:19;20.45;;;16.25;;
11598;SDS011;5855;48.840;9.188;2022-12-10T02:28:51;20.50;;;16.42;;
11598;SDS011;5855;48.840;9.188;2022-12-10T02:31:30;20.77;;;17.25;;
11598;SDS011;5855;48.840;9.188;2022-12-10T02:34:00;22.02;;;17.58;;
11598;SDS011;5855;48.840;9.188;2022-12-10T02:36:31;21.25;;;17.33;;
11598;SDS011;5855;48.840;9.188;2022-12-10T02:39:01;21.10;;;16.98;;
11598;SDS011;5855;48.840;9.188;2022-12-10T02:41:30;22.15;;;16.30;;
11598;SDS011;5855;48.840;9.188;2022-12-10T02:44:03;20.38;;;16.73;;
11598;SDS011;5855;48.840;9.188;2022-12-10T02:46:34;19.52;;;16.08;;
11598;SDS011;5855;48.840;9.188;2022-12-10T02:49:04;20.25;;;16.20;;
11598;SDS011;5855;48.840;9.188;2022-12-10T02:51:33;20.10;;;16.58;;
11598;SDS011;5855;48.840;9.188;2022-12-10T02:54:01;21.02;;;16.98;;
11598;SDS011;5855;48.840;9.188;2022-12-10T02:56:30;19.25;;;16.05;;
11598;SDS011;5855;48.840;9.188;2022-12-10T02:59:04;20.55;;;16.30;;
11598;SDS011;5855;48.840;9.188;2022-12-10T03:01:42;20.02;;;15.85;;
11598;SDS011;5855;48.840;9.188;2022-12-10T03:04:18;21.13;;;16.42;;
11598;SDS011;5855;48.840;9.188;2022-12-10T03:06:52;20.65;;;16.55;;
11598;SDS011;5855;48.840;9.188;2022-12-10T03:09:24;21.88;;;16.73;;
11598;SDS011;5855;48.840;9.188;2022-12-10T03:11:57;18.10;;;15.80;;
11598;SDS011;5855;48.840;9.188;2022-12-10T03:14:29;19.67;;;16.70;;
11598;SDS011;5855;48.840;9.188;2022-12-10T03:16:59;20.92;;;15.15;;
11598;SDS011;5855;48.840;9.188;2022-12-10T03:19:28;20.38;;;16.10;;
11598;SDS011;5855;48.840;9.188;2022-12-10T03:22:00;20.70;;;16.60;;
11598;SDS011;5855;48.840;9.188;2022-12-10T03:24:29;19.75;;;15.88;;
11598;SDS011;5855;48.840;9.188;2022-12-10T03:26:58;21.25;;;16.52;;
11598;SDS011;5855;48.840;9.188;2022-12-10T03:29:26;21.65;;;17.17;;
11598;SDS011;5855;48.840;9.188;2022-12-10T03:31:58;20.63;;;16.88;;
11598;SDS011;5855;48.840;9.188;2022-12-10T03:34:26;19.80;;;16.50;;
11598;SDS011;5855;48.840;9.188;2022-12-10T03:36:54;20.52;;;16.98;;
11598;SDS011;5855;48.840;9.188;2022-12-10T03:39:22;20.42;;;16.00;;
11598;SDS011;5855;48.840;9.188;2022-12-10T03:41:49;21.10;;;16.77;;
11598;SDS011;5855;48.840;9.188;2022-12-10T03:44:26;20.95;;;16.90;;
11598;SDS011;5855;48.840;9.188;2022-12-10T03:46:53;19.50;;;16.45;;
11598;SDS011;5855;48.840;9.188;2022-12-10T03:49:21;20.40;;;15.68;;
11598;SDS011;5855;48.840;9.188;2022-12-10T03:51:49;20.80;;;16.73;;
11598;SDS011;5855;48.840;9.188;2022-12-10T03:54:16;21.85;;;17.50;;
11598;SDS011;5855;48.840;9.188;2022-12-10T03:56:42;20.88;;;16.73;;
11598;SDS011;5855;48.840;9.188;2022-12-10T03:59:09;20.83;;;17.50;;
11598;SDS011;5855;48.840;9.188;2022-12-10T04:01:36;20.15;;;16.75;;
11598;SDS011;5855;48.840;9.188;2022-12-10T04:04:03;22.80;;;17.15;;
11598;SDS011;5855;48.840;9.188;2022-12-10T04:06:32;20.98;;;17.17;;
11598;SDS011;5855;48.840;9.188;2022-12-10T04:08:59;19.27;;;16.17;;
11598;SDS011;5855;48.840;9.188;2022-12-10T04:11:26;20.73;;;16.73;;
11598;SDS011;5855;48.840;9.188;2022-12-10T04:13:53;20.83;;;17.30;;
11598;SDS011;5855;48.840;9.188;2022-12-10T04:16:37;22.17;;;17.17;;
11598;SDS011;5855;48.840;9.188;2022-12-10T04:19:04;24.88;;;17.17;;
11598;SDS011;5855;48.840;9.188;2022-12-10T04:21:35;21.55;;;16.90;;
11598;SDS011;5855;48.840;9.188;2022-12-10T04:24:21;23.83;;;17.30;;
11598;SDS011;5855;48.840;9.188;2022-12-10T04:27:08;21.05;;;16.75;;
11598;SDS011;5855;48.840;9.188;2022-12-10T04:29:37;22.98;;;17.48;;
11598;SDS011;5855;48.840;9.188;2022-12-10T04:32:05;22.77;;;17.60;;
11598;SDS011;5855;48.840;9.188;2022-12-10T04:34:32;24.52;;;17.58;;
11598;SDS011;5855;48.840;9.188;2022-12-10T04:37:01;23.60;;;18.27;;
11598;SDS011;5855;48.840;9.188;2022-12-10T04:39:29;21.40;;;17.92;;
11598;SDS011;5855;48.840;9.188;2022-12-10T04:41:56;20.48;;;16.52;;
11598;SDS011;5855;48.840;9.188;2022-12-10T04:44:23;22.30;;;18.42;;
11598;SDS011;5855;48.840;9.188;2022-12-10T04:46:50;24.00;;;17.50;;
11598;SDS011;5855;48.840;9.188;2022-12-10T04:49:17;24.48;;;18.05;;
11598;SDS011;5855;48.840;9.188;2022-12-10T04:51:44;27.02;;;17.63;;
11598;SDS011;5855;48.840;9.188;2022-12-10T04:54:13;23.23;;;18.75;;
11598;SDS011;5855;48.840;9.188;2022-12-10T04:56:40;25.60;;;18.17;;
11598;SDS011;5855;48.840;9.188;2022-12-10T04:59:07;24.10;;;18.52;;
11598;SDS011;5855;48.840;9.188;2022-12-10T05:01:35;22.60;;;18.85;;
11598;SDS011;5855;48.840;9.188;2022-12-10T05:04:03;27.00;;;19.13;;
11598;SDS011;5855;48.840;9.188;2022-12-10T05:06:31;22.45;;;17.42;;
11598;SDS011;5855;48.840;9.188;2022-12-10T05:08:58;25.30;;;18.45;;
11598;SDS011;5855;48.840;9.188;2022-12-10T05:11:27;26.65;;;19.23;;
11598;SDS011;5855;48.840;9.188;2022-12-10T05:13:55;25.77;;;18.85;;
11598;SDS011;5855;48.840;9.188;2022-12-10T05:16:23;24.48;;;19.05;;
11598;SDS011;5855;48.840;9.188;2022-12-10T05:18:52;26.02;;;19.98;;
11598;SDS011;5855;48.840;9.188;2022-12-10T05:21:20;24.02;;;19.70;;
11598;SDS011;5855;48.840;9.188;2022-12-10T05:23:48;25.60;;;19.58;;
11598;SDS011;5855;48.840;9.188;2022-12-10T05:26:16;23.48;;;18.48;;
11598;SDS011;5855;48.840;9.188;2022-12-10T05:28:46;24.52;;;19.50;;
11598;SDS011;5855;48.840;9.188;2022-12-10T05:31:15;23.75;;;18.95;;
11598;SDS011;5855;48.840;9.188;2022-12-10T05:33:45;25.35;;;20.10;;
11598;SDS011;5855;48.840;9.188;2022-12-10T05:36:13;25.20;;;20.15;;
11598;SDS011;5855;48.840;9.188;2022-12-10T05:38:42;24.33;;;18.52;;
11598;SDS011;5855;48.840;9.188;2022-12-10T05:41:09;26.17;;;19.85;;
11598;SDS011;5855;48.840;9.188;2022-12-10T05:43:38;26.60;;;19.00;;
11598;SDS011;5855;48.840;9.188;2022-12-10T05:46:07;25.13;;;18.98;;
11598;SDS011;5855;48.840;9.188;2022-12-10T05:48:36;24.55;;;18.75;;
11598;SDS011;5855;48.840;9.188;2022-12-10T05:51:03;26.35;;;19.38;;
11598;SDS011;5855;48.840;9.188;2022-12-10T05:53:30;25.48;;;18.67;;
11598;SDS011;5855;48.840;9.188;2022-12-10T05:56:00;26.33;;;19.65;;
11598;SDS011;5855;48.840;9.188;2022-12-10T05:58:27;27.50;;;19.73;;
11598;SDS011;5855;48.840;9.188;2022-12-10T06:00:55;26.17;;;19.58;;
11598;SDS011;5855;48.840;9.188;2022-12-10T06:03:23;23.88;;;18.92;;
11598;SDS011;5855;48.840;9.188;2022-12-10T06:05:52;25.77;;;19.60;;
11598;SDS011;5855;48.840;9.188;2022-12-10T06:08:19;24.35;;;18.63;;
11598;SDS011;5855;48.840;9.188;2022-12-10T06:10:46;23.85;;;19.38;;
11598;SDS011;5855;48.840;9.188;2022-12-10T06:13:13;23.63;;;19.10;;
11598;SDS011;5855;48.840;9.188;2022-12-10T06:15:40;25.17;;;18.85;;
11598;SDS011;5855;48.840;9.188;2022-12-10T06:18:08;24.35;;;18.95;;
11598;SDS011;5855;48.840;9.188;2022-12-10T06:20:39;25.20;;;19.23;;
11598;SDS011;5855;48.840;9.188;2022-12-10T06:23:06;23.52;;;18.70;;
11598;SDS011;5855;48.840;9.188;2022-12-10T06:25:33;22.95;;;18.02;;
11598;SDS011;5855;48.840;9.188;2022-12-10T06:28:03;22.25;;;18.38;;
11598;SDS011;5855;48.840;9.188;2022-12-10T06:30:30;24.33;;;18.58;;
11598;SDS011;5855;48.840;9.188;2022-12-10T06:32:57;22.15;;;17.52;;
11598;SDS011;5855;48.840;9.188;2022-12-10T06:35:24;21.40;;;18.00;;
11598;SDS011;5855;48.840;9.188;2022-12-10T06:37:52;22.83;;;18.48;;
11598;SDS011;5855;48.840;9.188;2022-12-10T06:40:19;24.23;;;18.85;;
11598;SDS011;5855;48.840;9.188;2022-12-10T06:42:50;22.73;;;18.65;;
11598;SDS011;5855;48.840;9.188;2022-12-10T06:45:17;23.40;;;18.67;;
11598;SDS011;5855;48.840;9.188;2022-12-10T06:47:44;22.88;;;18.42;;
11598;SDS011;5855;48.840;9.188;2022-12-10T06:50:11;22.38;;;17.48;;
11598;SDS011;5855;48.840;9.188;2022-12-10T06:52:37;21.08;;;17.38;;
11598;SDS011;5855;48.840;9.188;2022-12-10T06:55:06;24.38;;;18.40;;
11598;SDS011;5855;48.840;9.188;2022-12-10T06:57:33;23.95;;;17.05;;
11598;SDS011;5855;48.840;9.188;2022-12-10T07:00:00;23.23;;;17.85;;
11598;SDS011;5855;48.840;9.188;2022-12-10T07:02:27;20.90;;;17.60;;
11598;SDS011;5855;48.840;9.188;2022-12-10T07:04:53;22.77;;;18.10;;
11598;SDS011;5855;48.840;9.188;2022-12-10T07:07:21;23.00;;;18.40;;
11598;SDS011;5855;48.840;9.188;2022-12-10T07:09:48;22.40;;;18.38;;
11598;SDS011;5855;48.840;9.188;2022-12-10T07:12:16;22.95;;;16.95;;
11598;SDS011;5855;48.840;9.188;2022-12-10T07:14:43;23.10;;;17.80;;
11598;SDS011;5855;48.840;9.188;2022-12-10T07:17:09;21.85;;;17.45;;
11598;SDS011;5855;48.840;9.188;2022-12-10T07:19:36;22.35;;;17.48;;
11598;SDS011;5855;48.840;9.188;2022-12-10T07:22:03;22.58;;;17.75;;
11598;SDS011;5855;48.840;9.188;2022-12-10T07:24:30;26.08;;;17.98;;
11598;SDS011;5855;48.840;9.188;2022-12-10T07:26:57;24.65;;;17.67;;
11598;SDS011;5855;48.840;9.188;2022-12-10T07:29:25;23.75;;;18.15;;
11598;SDS011;5855;48.840;9.188;2022-12-10T07:31:52;21.92;;;17.48;;
11598;SDS011;5855;48.840;9.188;2022-12-10T07:34:20;23.08;;;17.80;;
11598;SDS011;5855;48.840;9.188;2022-12-10T07:36:47;23.77;;;18.27;;
11598;SDS011;5855;48.840;9.188;2022-12-10T07:39:14;22.50;;;17.92;;
11598;SDS011;5855;48.840;9.188;2022-12-10T07:41:43;23.58;;;18.73;;
11598;SDS011;5855;48.840;9.188;2022-12-10T07:44:11;22.13;;;17.92;;
11598;SDS011;5855;48.840;9.188;2022-12-10T07:46:40;24.75;;;18.45;;
11598;SDS011;5855;48.840;9.188;2022-12-10T07:49:06;22.25;;;18.40;;
11598;SDS011;5855;48.840;9.188;2022-12-10T07:51:34;22.70;;;17.73;;
11598;SDS011;5855;48.840;9.188;2022-12-10T07:54:01;22.70;;;18.30;;
11598;SDS011;5855;48.840;9.188;2022-12-10T07:56:28;24.50;;;18.63;;
11598;SDS011;5855;48.840;9.188;2022-12-10T07:58:55;23.70;;;18.67;;
11598;SDS011;5855;48.840;9.188;2022-12-10T08:01:22;22.20;;;18.23;;
11598;SDS011;5855;48.840;9.188;2022-12-10T08:03:52;22.77;;;18.75;;
11598;SDS011;5855;48.840;9.188;2022-12-10T08:06:21;24.15;;;18.58;;
11598;SDS011;5855;48.840;9.188;2022-12-10T08:08:49;22.50;;;18.33;;
11598;SDS011;5855;48.840;9.188;2022-12-10T08:11:16;22.42;;;18.13;;
11598;SDS011;5855;48.840;9.188;2022-12-10T08:13:44;22.42;;;19.05;;
11598;SDS011;5855;48.840;9.188;2022-12-10T08:16:13;24.00;;;18.80;;
11598;SDS011;5855;48.840;9.188;2022-12-10T08:18:41;23.38;;;18.98;;
11598;SDS011;5855;48.840;9.188;2022-12-10T08:21:10;23.50;;;18.65;;
11598;SDS011;5855;48.840;9.188;2022-12-10T08:23:39;23.30;;;18.73;;
11598;SDS011;5855;48.840;9.188;2022-12-10T08:26:07;25.02;;;19.60;;
11598;SDS011;5855;48.840;9.188;2022-12-10T08:28:35;21.75;;;17.77;;
11598;SDS011;5855;48.840;9.188;2022-12-10T08:31:03;24.45;;;18.98;;
11598;SDS011;5855;48.840;9.188;2022-12-10T08:33:32;22.48;;;18.15;;
11598;SDS011;5855;48.840;9.188;2022-12-10T08:36:00;24.08;;;19.38;;
11598;SDS011;5855;48.840;9.188;2022-12-10T08:38:28;23.25;;;18.70;;
11598;SDS011;5855;48.840;9.188;2022-12-10T08:40:56;23.48;;;18.80;;
11598;SDS011;5855;48.840;9.188;2022-12-10T08:43:23;22.40;;;18.52;;
11598;SDS011;5855;48.840;9.188;2022-12-10T08:45:50;22.48;;;18.13;;
11598;SDS011;5855;48.840;9.188;2022-12-10T08:48:17;22.08;;;18.63;;
11598;SDS011;5855;48.840;9.188;2022-12-10T08:50:44;23.13;;;19.17;;
11598;SDS011;5855;48.840;9.188;2022-12-10T08:53:11;23.50;;;18.60;;
11598;SDS011;5855;48.840;9.188;2022-12-10T08:55:39;23.63;;;18.67;;
11598;SDS011;5855;48.840;9.188;2022-12-10T08:58:06;22.98;;;18.60;;
11598;SDS011;5855;48.840;9.188;2022-12-10T09:00:35;22.92;;;18.38;;
11598;SDS011;5855;48.840;9.188;2022-12-10T09:03:02;22.23;;;17.55;;
11598;SDS011;5855;48.840;9.188;2022-12-10T09:05:29;23.50;;;18.17;;
11598;SDS011;5855;48.840;9.188;2022-12-10T09:07:56;20.50;;;17.15;;
11598;SDS011;5855;48.840;9.188;2022-12-10T09:10:22;22.77;;;18.13;;
11598;SDS011;5855;48.840;9.188;2022-12-10T09:12:51;21.52;;;17.20;;
11598;SDS011;5855;48.840;9.188;2022-12-10T09:15:18;21.85;;;17.75;;
11598;SDS011;5855;48.840;9.188;2022-12-10T09:17:44;21.80;;;18.20;;
11598;SDS011;5855;48.840;9.188;2022-12-10T09:20:11;21.48;;;17.48;;
11598;SDS011;5855;48.840;9.188;2022-12-10T09:22:38;21.00;;;17.85;;
11598;SDS011;5855;48.840;9.188;2022-12-10T09:25:06;20.38;;;17.20;;
11598;SDS011;5855;48.840;9.188;2022-12-10T09:27:34;21.58;;;17.38;;
11598;SDS011;5855;48.840;9.188;2022-12-10T09:30:03;23.63;;;17.67;;
11598;SDS011;5855;48.840;9.188;2022-12-10T09:32:31;21.60;;;17.58;;
11598;SDS011;5855;48.840;9.188;2022-12-10T09:34:57;20.55;;;17.10;;
11598;SDS011;5855;48.840;9.188;2022-12-10T09:37:24;20.55;;;17.15;;
11598;SDS011;5855;48.840;9.188;2022-12-10T09:39:51;18.92;;;16.92;;
11598;SDS011;5855;48.840;9.188;2022-12-10T09:42:21;21.15;;;16.38;;
11598;SDS011;5855;48.840;9.188;2022-12-10T09:44:58;19.25;;;15.90;;
11598;SDS011;5855;48.840;9.188;2022-12-10T09:47:33;19.40;;;16.52;;
11598;SDS011;5855;48.840;9.188;2022-12-10T09:50:10;19.80;;;16.30;;
11598;SDS011;5855;48.840;9.188;2022-12-10T09:52:43;18.67;;;16.08;;
11598;SDS011;5855;48.840;9.188;2022-12-10T09:55:13;19.00;;;16.38;;
11598;SDS011;5855;48.840;9.188;2022-12-10T09:57:42;20.42;;;17.17;;
11598;SDS011;5855;48.840;9.188;2022-12-10T10:00:17;21.80;;;16.33;;
11598;SDS011;5855;48.840;9.188;2022-12-10T10:02:48;19.33;;;15.98;;
11598;SDS011;5855;48.840;9.188;2022-12-10T10:05:17;17.45;;;15.50;;
11598;SDS011;5855;48.840;9.188;2022-12-10T10:07:48;19.35;;;16.08;;
11598;SDS011;5855;48.840;9.188;2022-12-10T10:10:21;21.77;;;16.75;;
11598;SDS011;5855;48.840;9.188;2022-12-10T10:12:52;20.05;;;16.60;;
11598;SDS011;5855;48.840;9.188;2022-12-10T10:15:24;19.27;;;16.40;;
11598;SDS011;5855;48.840;9.188;2022-12-10T10:17:58;19.92;;;16.75;;
11598;SDS011;5855;48.840;9.188;2022-12-10T10:20:28;20.30;;;16.63;;
11598;SDS011;5855;48.840;9.188;2022-12-10T10:22:56;19.55;;;16.27;;
11598;SDS011;5855;48.840;9.188;2022-12-10T10:25:24;20.30;;;16.48;;
11598;SDS011;5855;48.840;9.188;2022-12-10T10:27:52;20.60;;;17.35;;
11598;SDS011;5855;48.840;9.188;2022-12-10T10:30:20;22.20;;;17.13;;
11598;SDS011;5855;48.840;9.188;2022-12-10T10:32:49;21.90;;;17.55;;
11598;SDS011;5855;48.840;9.188;2022-12-10T10:35:22;18.88;;;16.30;;
11598;SDS011;5855;48.840;9.188;2022-12-10T10:37:51;19.33;;;16.27;;
11598;SDS011;5855;48.840;9.188;2022-12-10T10:40:23;24.27;;;17.17;;
11598;SDS011;5855;48.840;9.188;2022-12-10T10:42:54;20.15;;;16.55;;
11598;SDS011;5855;48.840;9.188;2022-12-10T10:45:36;19.67;;;16.67;;
11598;SDS011;5855;48.840;9.188;2022-12-10T10:48:06;19.85;;;16.65;;
11598;SDS011;5855;48.840;9.188;2022-12-10T10:50:39;21.58;;;17.08;;
11598;SDS011;5855;48.840;9.188;2022-12-10T10:53:30;21.25;;;16.25;;
11598;SDS011;5855;48.840;9.188;2022-12-10T10:56:05;25.38;;;16.05;;
11598;SDS011;5855;48.840;9.188;2022-12-10T10:58:34;18.60;;;16.05;;
11598;SDS011;5855;48.840;9.188;2022-12-10T11:01:03;18.45;;;16.23;;
11598;SDS011;5855;48.840;9.188;2022-12-10T11:03:32;20.98;;;15.95;;
11598;SDS011;5855;48.840;9.188;2022-12-10T11:06:04;19.17;;;16.45;;
11598;SDS011;5855;48.840;9.188;2022-12-10T11:08:33;18.73;;;15.68;;
11598;SDS011;5855;48.840;9.188;2022-12-10T11:11:04;18.92;;;15.23;;
11598;SDS011;5855;48.840;9.188;2022-12-10T11:13:33;17.13;;;14.80;;
11598;SDS011;5855;48.840;9.188;2022-12-10T11:16:02;18.75;;;15.52;;
11598;SDS011;5855;48.840;9.188;2022-12-10T11:18:38;21.50;;;15.35;;
11598;SDS011;5855;48.840;9.188;2022-12-10T11:21:15;19.67;;;15.93;;
11598;SDS011;5855;48.840;9.188;2022-12-10T11:23:45;17.48;;;15.57;;
11598;SDS011;5855;48.840;9.188;2022-12-10T11:29:07;17.90;;;14.65;;
11598;SDS011;5855;48.840;9.188;2022-12-10T11:31:49;19.10;;;15.30;;
11598;SDS011;5855;48.840;9.188;2022-12-10T11:34:30;18.13;;;15.38;;
11598;SDS011;5855;48.840;9.188;2022-12-10T11:37:10;20.38;;;16.23;;
11598;SDS011;5855;48.840;9.188;2022-12-10T11:42:48;17.10;;;14.82;;
11598;SDS011;5855;48.840;9.188;2022-12-10T11:45:26;18.80;;;15.30;;
11598;SDS011;5855;48.840;9.188;2022-12-10T11:48:06;18.10;;;15.18;;
11598;SDS011;5855;48.840;9.188;2022-12-10T11:50:46;18.35;;;15.32;;
11598;SDS011;5855;48.840;9.188;2022-12-10T11:53:27;17.58;;;14.40;;
11598;SDS011;5855;48.840;9.188;2022-12-10T11:56:07;17.23;;;14.40;;
11598;SDS011;5855;48.840;9.188;2022-12-10T11:58:48;20.77;;;15.85;;
11598;SDS011;5855;48.840;9.188;2022-12-10T12:01:29;18.38;;;14.68;;
11598;SDS011;5855;48.840;9.188;2022-12-10T12:07:06;16.67;;;14.15;;
11598;SDS011;5855;48.840;9.188;2022-12-10T12:09:53;16.27;;;13.50;;
11598;SDS011;5855;48.840;9.188;2022-12-10T12:12:41;15.52;;;13.65;;
11598;SDS011;5855;48.840;9.188;2022-12-10T12:15:17;17.00;;;14.40;;
11598;SDS011;5855;48.840;9.188;2022-12-10T12:17:50;15.95;;;13.68;;
11598;SDS011;5855;48.840;9.188;2022-12-10T12:20:23;17.42;;;13.25;;
11598;SDS011;5855;48.840;9.188;2022-12-10T12:22:56;17.35;;;13.57;;
11598;SDS011;5855;48.840;9.188;2022-12-10T12:25:27;15.50;;;13.82;;
11598;SDS011;5855;48.840;9.188;2022-12-10T12:28:00;15.90;;;13.95;;
11598;SDS011;5855;48.840;9.188;2022-12-10T12:30:32;16.77;;;13.70;;
11598;SDS011;5855;48.840;9.188;2022-12-10T12:33:02;15.57;;;13.35;;
11598;SDS011;5855;48.840;9.188;2022-12-10T12:35:36;14.18;;;12.43;;
11598;SDS011;5855;48.840;9.188;2022-12-10T12:38:14;14.88;;;13.27;;
11598;SDS011;5855;48.840;9.188;2022-12-10T12:40:55;15.77;;;13.05;;
11598;SDS011;5855;48.840;9.188;2022-12-10T12:43:26;16.33;;;12.88;;
11598;SDS011;5855;48.840;9.188;2022-12-10T12:45:59;15.63;;;13.35;;
11598;SDS011;5855;48.840;9.188;2022-12-10T12:48:29;16.25;;;13.82;;
11598;SDS011;5855;48.840;9.188;2022-12-10T12:51:01;14.60;;;12.93;;
11598;SDS011;5855;48.840;9.188;2022-12-10T12:53:31;15.25;;;12.52;;
11598;SDS011;5855;48.840;9.188;2022-12-10T12:56:03;15.52;;;12.77;;
11598;SDS011;5855;48.840;9.188;2022-12-10T12:58:35;15.38;;;13.15;;
11598;SDS011;5855;48.840;9.188;2022-12-10T13:01:10;15.05;;;12.50;;
11598;SDS011;5855;48.840;9.188;2022-12-10T13:03:45;14.15;;;12.57;;
11598;SDS011;5855;48.840;9.188;2022-12-10T13:06:15;15.88;;;12.85;;
11598;SDS011;5855;48.840;9.188;2022-12-10T13:08:48;14.10;;;12.38;;
11598;SDS011;5855;48.840;9.188;2022-12-10T13:11:30;17.17;;;13.70;;
11598;SDS011;5855;48.840;9.188;2022-12-10T13:17:08;13.98;;;12.25;;
11598;SDS011;5855;48.840;9.188;2022-12-10T13:19:52;15.45;;;12.75;;
11598;SDS011;5855;48.840;9.188;2022-12-10T13:25:11;17.92;;;12.65;;
11598;SDS011;5855;48.840;9.188;2022-12-10T13:27:55;17.63;;;13.98;;
11598;SDS011;5855;48.840;9.188;2022-12-10T13:33:15;18.92;;;15.77;;
11598;SDS011;5855;48.840;9.188;2022-12-10T13:35:48;18.98;;;15.93;;
11598;SDS011;5855;48.840;9.188;2022-12-10T13:38:21;20.42;;;16.50;;
11598;SDS011;5855;48.840;9.188;2022-12-10T13:41:03;22.52;;;16.85;;
11598;SDS011;5855;48.840;9.188;2022-12-10T13:43:54;20.85;;;16.92;;
11598;SDS011;5855;48.840;9.188;2022-12-10T13:46:51;18.88;;;16.15;;
11598;SDS011;5855;48.840;9.188;2022-12-10T13:49:24;19.70;;;16.15;;
11598;SDS011;5855;48.840;9.188;2022-12-10T13:51:57;20.95;;;17.52;;
11598;SDS011;5855;48.840;9.188;2022-12-10T13:57:44;20.58;;;16.15;;
11598;SDS011;5855;48.840;9.188;2022-12-10T14:00:31;20.13;;;16.00;;
11598;SDS011;5855;48.840;9.188;2022-12-10T14:03:19;21.50;;;16.85;;
11598;SDS011;5855;48.840;9.188;2022-12-10T14:06:14;21.67;;;16.45;;
11598;SDS011;5855;48.840;9.188;2022-12-10T14:08:50;19.85;;;16.38;;
11598;SDS011;5855;48.840;9.188;2022-12-10T14:11:23;19.58;;;16.17;;
11598;SDS011;5855;48.840;9.188;2022-12-10T14:13:54;20.30;;;16.50;;
11598;SDS011;5855;48.840;9.188;2022-12-10T14:16:26;22.15;;;16.92;;
11598;SDS011;5855;48.840;9.188;2022-12-10T14:18:55;20.95;;;16.40;;
11598;SDS011;5855;48.840;9.188;2022-12-10T14:21:24;20.65;;;16.52;;
11598;SDS011;5855;48.840;9.188;2022-12-10T14:23:52;22.92;;;16.50;;
11598;SDS011;5855;48.840;9.188;2022-12-10T14:26:20;22.52;;;17.13;;
11598;SDS011;5855;48.840;9.188;2022-12-10T14:28:48;21.25;;;16.55;;
11598;SDS011;5855;48.840;9.188;2022-12-10T14:31:17;22.42;;;16.90;;
11598;SDS011;5855;48.840;9.188;2022-12-10T14:33:48;21.05;;;16.33;;
11598;SDS011;5855;48.840;9.188;2022-12-10T14:36:18;19.92;;;15.93;;
11598;SDS011;5855;48.840;9.188;2022-12-10T14:38:50;19.73;;;16.13;;
11598;SDS011;5855;48.840;9.188;2022-12-10T14:41:18;19.92;;;15.38;;
11598;SDS011;5855;48.840;9.188;2022-12-10T14:43:48;19.92;;;15.98;;
11598;SDS011;5855;48.840;9.188;2022-12-10T14:46:17;20.23;;;16.25;;
11598;SDS011;5855;48.840;9.188;2022-12-10T14:48:48;20.10;;;16.25;;
11598;SDS011;5855;48.840;9.188;2022-12-10T14:51:18;21.52;;;16.45;;
11598;SDS011;5855;48.840;9.188;2022-12-10T14:53:46;20.73;;;17.08;;
11598;SDS011;5855;48.840;9.188;2022-12-10T14:56:16;20.98;;;16.73;;
11598;SDS011;5855;48.840;9.188;2022-12-10T14:58:47;21.05;;;17.10;;
11598;SDS011;5855;48.840;9.188;2022-12-10T15:01:19;22.30;;;17.77;;
11598;SDS011;5855;48.840;9.188;2022-12-10T15:03:54;21.45;;;16.92;;
11598;SDS011;5855;48.840;9.188;2022-12-10T15:06:23;18.67;;;15.65;;
11598;SDS011;5855;48.840;9.188;2022-12-10T15:08:51;21.88;;;16.13;;
11598;SDS011;5855;48.840;9.188;2022-12-10T15:11:23;22.40;;;16.38;;
11598;SDS011;5855;48.840;9.188;2022-12-10T15:13:52;22.50;;;16.67;;